sensor_id;sensor_type;location;lat;lon;timestamp;P1;durP1;ratioP1;P2;durP2;ratioP2
53961;SDS011;39868;53.398;6.564;2024-03-29T00:01:24;8.52;;;8.13;;
53961;SDS011;39868;53.398;6.564;2024-03-29T00:03:50;8.50;;;8.00;;
53961;SDS011;39868;53.398;6.564;2024-03-29T00:06:16;8.25;;;7.88;;
53961;SDS011;39868;53.398;6.564;2024-03-29T00:08:43;8.13;;;7.72;;
53961;SDS011;39868;53.398;6.564;2024-03-29T00:11:09;8.30;;;7.90;;
53961;SDS011;39868;53.398;6.564;2024-03-29T00:13:35;8.80;;;8.20;;
53961;SDS011;39868;53.398;6.564;2024-03-29T00:16:01;8.90;;;8.23;;
53961;SDS011;39868;53.398;6.564;2024-03-29T00:18:27;7.82;;;7.50;;
53961;SDS011;39868;53.398;6.564;2024-03-29T00:20:53;8.63;;;8.13;;
53961;SDS011;39868;53.398;6.564;2024-03-29T00:23:18;8.48;;;7.97;;
53961;SDS011;39868;53.398;6.564;2024-03-29T00:25:44;8.23;;;7.78;;
53961;SDS011;39868;53.398;6.564;2024-03-29T00:28:10;8.02;;;7.63;;
53961;SDS011;39868;53.398;6.564;2024-03-29T00:30:36;8.45;;;7.90;;
53961;SDS011;39868;53.398;6.564;2024-03-29T00:33:02;8.10;;;7.70;;
53961;SDS011;39868;53.398;6.564;2024-03-29T00:35:29;8.00;;;7.60;;
53961;SDS011;39868;53.398;6.564;2024-03-29T00:37:56;8.77;;;7.95;;
53961;SDS011;39868;53.398;6.564;2024-03-29T00:40:22;8.88;;;8.13;;
53961;SDS011;39868;53.398;6.564;2024-03-29T00:42:48;8.18;;;7.75;;
53961;SDS011;39868;53.398;6.564;2024-03-29T00:45:14;8.80;;;8.30;;
53961;SDS011;39868;53.398;6.564;2024-03-29T00:47:40;8.15;;;7.80;;
53961;SDS011;39868;53.398;6.564;2024-03-29T00:50:06;8.63;;;8.00;;
53961;SDS011;39868;53.398;6.564;2024-03-29T00:52:35;8.52;;;8.13;;
53961;SDS011;39868;53.398;6.564;2024-03-29T00:55:01;8.50;;;8.10;;
53961;SDS011;39868;53.398;6.564;2024-03-29T00:57:28;8.70;;;8.10;;
53961;SDS011;39868;53.398;6.564;2024-03-29T00:59:54;9.10;;;8.45;;
53961;SDS011;39868;53.398;6.564;2024-03-29T01:02:22;8.65;;;8.25;;
53961;SDS011;39868;53.398;6.564;2024-03-29T01:04:49;8.98;;;8.48;;
53961;SDS011;39868;53.398;6.564;2024-03-29T01:07:15;8.38;;;7.97;;
53961;SDS011;39868;53.398;6.564;2024-03-29T01:09:42;8.35;;;7.97;;
53961;SDS011;39868;53.398;6.564;2024-03-29T01:12:09;8.60;;;8.10;;
53961;SDS011;39868;53.398;6.564;2024-03-29T01:14:35;8.45;;;8.07;;
53961;SDS011;39868;53.398;6.564;2024-03-29T01:17:02;8.68;;;8.27;;
53961;SDS011;39868;53.398;6.564;2024-03-29T01:19:28;7.85;;;7.55;;
53961;SDS011;39868;53.398;6.564;2024-03-29T01:21:54;8.00;;;7.50;;
53961;SDS011;39868;53.398;6.564;2024-03-29T01:24:20;8.13;;;7.65;;
53961;SDS011;39868;53.398;6.564;2024-03-29T01:26:46;8.50;;;7.90;;
53961;SDS011;39868;53.398;6.564;2024-03-29T01:29:12;8.38;;;7.90;;
53961;SDS011;39868;53.398;6.564;2024-03-29T01:31:38;8.15;;;7.75;;
53961;SDS011;39868;53.398;6.564;2024-03-29T01:34:04;8.43;;;7.95;;
53961;SDS011;39868;53.398;6.564;2024-03-29T01:36:30;8.75;;;8.10;;
53961;SDS011;39868;53.398;6.564;2024-03-29T01:38:56;8.50;;;7.90;;
53961;SDS011;39868;53.398;6.564;2024-03-29T01:41:24;8.40;;;8.00;;
53961;SDS011;39868;53.398;6.564;2024-03-29T01:43:53;8.73;;;8.23;;
53961;SDS011;39868;53.398;6.564;2024-03-29T01:46:20;8.65;;;8.23;;
53961;SDS011;39868;53.398;6.564;2024-03-29T01:48:48;8.40;;;7.75;;
53961;SDS011;39868;53.398;6.564;2024-03-29T01:51:17;8.32;;;7.93;;
53961;SDS011;39868;53.398;6.564;2024-03-29T01:53:45;9.38;;;8.80;;
53961;SDS011;39868;53.398;6.564;2024-03-29T01:56:13;8.60;;;8.00;;
53961;SDS011;39868;53.398;6.564;2024-03-29T01:58:41;8.40;;;7.90;;
53961;SDS011;39868;53.398;6.564;2024-03-29T02:01:08;8.27;;;7.82;;
53961;SDS011;39868;53.398;6.564;2024-03-29T02:03:35;8.13;;;7.72;;
53961;SDS011;39868;53.398;6.564;2024-03-29T02:06:02;8.70;;;8.20;;
53961;SDS011;39868;53.398;6.564;2024-03-29T02:08:29;8.18;;;7.68;;
53961;SDS011;39868;53.398;6.564;2024-03-29T02:10:55;8.25;;;7.75;;
53961;SDS011;39868;53.398;6.564;2024-03-29T02:13:23;8.52;;;8.05;;
53961;SDS011;39868;53.398;6.564;2024-03-29T02:15:49;8.05;;;7.65;;
53961;SDS011;39868;53.398;6.564;2024-03-29T02:18:15;9.10;;;8.50;;
53961;SDS011;39868;53.398;6.564;2024-03-29T02:20:41;8.13;;;7.60;;
53961;SDS011;39868;53.398;6.564;2024-03-29T02:23:11;8.32;;;7.80;;
53961;SDS011;39868;53.398;6.564;2024-03-29T02:25:45;8.07;;;7.68;;
53961;SDS011;39868;53.398;6.564;2024-03-29T02:28:12;8.55;;;8.02;;
53961;SDS011;39868;53.398;6.564;2024-03-29T02:30:38;8.77;;;8.10;;
53961;SDS011;39868;53.398;6.564;2024-03-29T02:33:05;8.10;;;7.70;;
53961;SDS011;39868;53.398;6.564;2024-03-29T02:35:31;8.50;;;8.10;;
53961;SDS011;39868;53.398;6.564;2024-03-29T02:37:57;8.13;;;7.72;;
53961;SDS011;39868;53.398;6.564;2024-03-29T02:40:23;8.15;;;7.60;;
53961;SDS011;39868;53.398;6.564;2024-03-29T02:42:49;7.88;;;7.55;;
53961;SDS011;39868;53.398;6.564;2024-03-29T02:45:16;8.27;;;7.70;;
53961;SDS011;39868;53.398;6.564;2024-03-29T02:47:42;8.55;;;7.90;;
53961;SDS011;39868;53.398;6.564;2024-03-29T02:50:09;8.43;;;7.70;;
53961;SDS011;39868;53.398;6.564;2024-03-29T02:52:37;7.63;;;7.22;;
53961;SDS011;39868;53.398;6.564;2024-03-29T02:55:03;8.20;;;7.70;;
53961;SDS011;39868;53.398;6.564;2024-03-29T02:57:29;8.05;;;7.70;;
53961;SDS011;39868;53.398;6.564;2024-03-29T02:59:55;8.60;;;8.10;;
53961;SDS011;39868;53.398;6.564;2024-03-29T03:02:21;7.80;;;7.40;;
53961;SDS011;39868;53.398;6.564;2024-03-29T03:04:47;8.30;;;7.70;;
53961;SDS011;39868;53.398;6.564;2024-03-29T03:07:13;7.78;;;7.47;;
53961;SDS011;39868;53.398;6.564;2024-03-29T03:09:58;8.07;;;7.65;;
53961;SDS011;39868;53.398;6.564;2024-03-29T03:12:42;7.75;;;7.45;;
53961;SDS011;39868;53.398;6.564;2024-03-29T03:15:09;8.10;;;7.65;;
53961;SDS011;39868;53.398;6.564;2024-03-29T03:17:35;8.38;;;7.88;;
53961;SDS011;39868;53.398;6.564;2024-03-29T03:20:01;8.18;;;7.68;;
53961;SDS011;39868;53.398;6.564;2024-03-29T03:22:29;8.00;;;7.38;;
53961;SDS011;39868;53.398;6.564;2024-03-29T03:24:55;8.10;;;7.60;;
53961;SDS011;39868;53.398;6.564;2024-03-29T03:27:21;8.25;;;7.60;;
53961;SDS011;39868;53.398;6.564;2024-03-29T03:29:49;7.68;;;7.28;;
53961;SDS011;39868;53.398;6.564;2024-03-29T03:32:14;9.18;;;7.45;;
53961;SDS011;39868;53.398;6.564;2024-03-29T03:34:40;7.53;;;7.13;;
53961;SDS011;39868;53.398;6.564;2024-03-29T03:37:06;7.18;;;6.88;;
53961;SDS011;39868;53.398;6.564;2024-03-29T03:39:32;7.90;;;7.22;;
53961;SDS011;39868;53.398;6.564;2024-03-29T03:41:58;7.55;;;7.15;;
53961;SDS011;39868;53.398;6.564;2024-03-29T03:44:24;7.88;;;7.28;;
53961;SDS011;39868;53.398;6.564;2024-03-29T03:46:51;7.30;;;6.80;;
53961;SDS011;39868;53.398;6.564;2024-03-29T03:49:17;7.20;;;6.80;;
53961;SDS011;39868;53.398;6.564;2024-03-29T03:51:43;7.50;;;7.10;;
53961;SDS011;39868;53.398;6.564;2024-03-29T03:54:09;7.30;;;6.93;;
53961;SDS011;39868;53.398;6.564;2024-03-29T03:56:35;7.35;;;6.90;;
53961;SDS011;39868;53.398;6.564;2024-03-29T03:59:01;7.85;;;7.45;;
53961;SDS011;39868;53.398;6.564;2024-03-29T04:01:27;7.28;;;6.88;;
53961;SDS011;39868;53.398;6.564;2024-03-29T04:03:53;7.50;;;7.10;;
53961;SDS011;39868;53.398;6.564;2024-03-29T04:06:19;7.82;;;7.32;;
53961;SDS011;39868;53.398;6.564;2024-03-29T04:08:46;7.93;;;7.40;;
53961;SDS011;39868;53.398;6.564;2024-03-29T04:11:12;8.00;;;7.50;;
53961;SDS011;39868;53.398;6.564;2024-03-29T04:13:38;8.10;;;7.70;;
53961;SDS011;39868;53.398;6.564;2024-03-29T04:16:06;7.68;;;7.32;;
53961;SDS011;39868;53.398;6.564;2024-03-29T04:18:33;8.02;;;7.43;;
53961;SDS011;39868;53.398;6.564;2024-03-29T04:20:59;7.60;;;7.05;;
53961;SDS011;39868;53.398;6.564;2024-03-29T04:23:26;7.65;;;7.30;;
53961;SDS011;39868;53.398;6.564;2024-03-29T04:25:55;7.88;;;7.32;;
53961;SDS011;39868;53.398;6.564;2024-03-29T04:28:23;7.65;;;7.25;;
53961;SDS011;39868;53.398;6.564;2024-03-29T04:30:50;7.10;;;6.80;;
53961;SDS011;39868;53.398;6.564;2024-03-29T04:33:20;7.60;;;7.10;;
53961;SDS011;39868;53.398;6.564;2024-03-29T04:35:59;7.43;;;6.97;;
53961;SDS011;39868;53.398;6.564;2024-03-29T04:38:27;7.93;;;7.53;;
53961;SDS011;39868;53.398;6.564;2024-03-29T04:40:54;7.90;;;7.53;;
53961;SDS011;39868;53.398;6.564;2024-03-29T04:43:26;7.78;;;7.38;;
53961;SDS011;39868;53.398;6.564;2024-03-29T04:46:09;7.75;;;7.45;;
53961;SDS011;39868;53.398;6.564;2024-03-29T04:48:37;7.80;;;7.43;;
53961;SDS011;39868;53.398;6.564;2024-03-29T04:51:04;7.90;;;7.50;;
53961;SDS011;39868;53.398;6.564;2024-03-29T04:53:31;8.27;;;7.68;;
53961;SDS011;39868;53.398;6.564;2024-03-29T04:55:57;8.18;;;7.57;;
53961;SDS011;39868;53.398;6.564;2024-03-29T04:58:26;8.13;;;7.82;;
53961;SDS011;39868;53.398;6.564;2024-03-29T05:00:53;8.23;;;7.82;;
53961;SDS011;39868;53.398;6.564;2024-03-29T05:03:20;8.18;;;7.75;;
53961;SDS011;39868;53.398;6.564;2024-03-29T05:05:48;8.77;;;8.02;;
53961;SDS011;39868;53.398;6.564;2024-03-29T05:08:17;7.85;;;7.40;;
53961;SDS011;39868;53.398;6.564;2024-03-29T05:10:45;7.32;;;7.03;;
53961;SDS011;39868;53.398;6.564;2024-03-29T05:13:11;7.22;;;6.93;;
53961;SDS011;39868;53.398;6.564;2024-03-29T05:15:38;7.85;;;7.32;;
53961;SDS011;39868;53.398;6.564;2024-03-29T05:18:04;7.97;;;7.47;;
53961;SDS011;39868;53.398;6.564;2024-03-29T05:20:30;7.57;;;7.07;;
53961;SDS011;39868;53.398;6.564;2024-03-29T05:22:57;7.53;;;7.07;;
53961;SDS011;39868;53.398;6.564;2024-03-29T05:25:24;6.95;;;6.65;;
53961;SDS011;39868;53.398;6.564;2024-03-29T05:27:50;8.20;;;7.70;;
53961;SDS011;39868;53.398;6.564;2024-03-29T05:30:17;7.68;;;7.25;;
53961;SDS011;39868;53.398;6.564;2024-03-29T05:32:43;8.32;;;7.70;;
53961;SDS011;39868;53.398;6.564;2024-03-29T05:35:10;7.75;;;7.18;;
53961;SDS011;39868;53.398;6.564;2024-03-29T05:37:36;7.90;;;7.40;;
53961;SDS011;39868;53.398;6.564;2024-03-29T05:40:03;7.70;;;7.18;;
53961;SDS011;39868;53.398;6.564;2024-03-29T05:42:31;7.32;;;6.65;;
53961;SDS011;39868;53.398;6.564;2024-03-29T05:45:05;7.38;;;6.70;;
53961;SDS011;39868;53.398;6.564;2024-03-29T05:47:54;6.95;;;6.45;;
53961;SDS011;39868;53.398;6.564;2024-03-29T05:50:21;6.45;;;6.15;;
53961;SDS011;39868;53.398;6.564;2024-03-29T05:52:48;6.70;;;6.30;;
53961;SDS011;39868;53.398;6.564;2024-03-29T05:55:14;6.63;;;6.20;;
53961;SDS011;39868;53.398;6.564;2024-03-29T05:57:40;7.40;;;6.90;;
53961;SDS011;39868;53.398;6.564;2024-03-29T06:00:07;6.50;;;6.20;;
53961;SDS011;39868;53.398;6.564;2024-03-29T06:02:37;6.82;;;6.25;;
53961;SDS011;39868;53.398;6.564;2024-03-29T06:05:03;5.97;;;5.68;;
53961;SDS011;39868;53.398;6.564;2024-03-29T06:07:30;7.60;;;6.07;;
53961;SDS011;39868;53.398;6.564;2024-03-29T06:10:01;6.55;;;6.10;;
53961;SDS011;39868;53.398;6.564;2024-03-29T06:12:31;6.35;;;5.93;;
53961;SDS011;39868;53.398;6.564;2024-03-29T06:14:57;6.70;;;6.30;;
53961;SDS011;39868;53.398;6.564;2024-03-29T06:17:42;6.10;;;5.70;;
53961;SDS011;39868;53.398;6.564;2024-03-29T06:20:08;6.50;;;6.00;;
53961;SDS011;39868;53.398;6.564;2024-03-29T06:22:34;5.90;;;5.60;;
53961;SDS011;39868;53.398;6.564;2024-03-29T06:25:00;6.00;;;5.60;;
53961;SDS011;39868;53.398;6.564;2024-03-29T06:27:32;6.25;;;5.75;;
53961;SDS011;39868;53.398;6.564;2024-03-29T06:29:59;6.07;;;5.70;;
53961;SDS011;39868;53.398;6.564;2024-03-29T06:32:26;6.20;;;5.90;;
53961;SDS011;39868;53.398;6.564;2024-03-29T06:34:52;5.65;;;5.45;;
53961;SDS011;39868;53.398;6.564;2024-03-29T06:37:18;5.72;;;5.30;;
53961;SDS011;39868;53.398;6.564;2024-03-29T06:39:47;5.95;;;5.55;;
53961;SDS011;39868;53.398;6.564;2024-03-29T06:42:13;6.47;;;5.88;;
53961;SDS011;39868;53.398;6.564;2024-03-29T06:44:39;5.55;;;5.35;;
53961;SDS011;39868;53.398;6.564;2024-03-29T06:47:06;5.72;;;5.38;;
53961;SDS011;39868;53.398;6.564;2024-03-29T06:49:33;5.65;;;5.35;;
53961;SDS011;39868;53.398;6.564;2024-03-29T06:51:59;5.90;;;5.50;;
53961;SDS011;39868;53.398;6.564;2024-03-29T06:54:26;5.88;;;5.57;;
53961;SDS011;39868;53.398;6.564;2024-03-29T06:56:53;6.60;;;6.20;;
53961;SDS011;39868;53.398;6.564;2024-03-29T06:59:20;6.25;;;5.78;;
53961;SDS011;39868;53.398;6.564;2024-03-29T07:01:46;5.80;;;5.60;;
53961;SDS011;39868;53.398;6.564;2024-03-29T07:04:19;6.13;;;5.82;;
53961;SDS011;39868;53.398;6.564;2024-03-29T07:06:49;6.53;;;6.07;;
53961;SDS011;39868;53.398;6.564;2024-03-29T07:09:20;6.18;;;5.95;;
53961;SDS011;39868;53.398;6.564;2024-03-29T07:11:48;6.22;;;5.82;;
53961;SDS011;39868;53.398;6.564;2024-03-29T07:14:16;6.10;;;5.80;;
53961;SDS011;39868;53.398;6.564;2024-03-29T07:16:43;6.15;;;5.85;;
53961;SDS011;39868;53.398;6.564;2024-03-29T07:19:09;5.60;;;5.40;;
53961;SDS011;39868;53.398;6.564;2024-03-29T07:21:44;5.90;;;5.60;;
53961;SDS011;39868;53.398;6.564;2024-03-29T07:24:11;6.10;;;5.80;;
53961;SDS011;39868;53.398;6.564;2024-03-29T07:26:37;6.40;;;6.00;;
53961;SDS011;39868;53.398;6.564;2024-03-29T07:29:04;6.13;;;5.68;;
53961;SDS011;39868;53.398;6.564;2024-03-29T07:31:32;6.10;;;5.80;;
53961;SDS011;39868;53.398;6.564;2024-03-29T07:33:59;6.03;;;5.72;;
53961;SDS011;39868;53.398;6.564;2024-03-29T07:36:25;6.10;;;5.70;;
53961;SDS011;39868;53.398;6.564;2024-03-29T07:38:57;6.00;;;5.70;;
53961;SDS011;39868;53.398;6.564;2024-03-29T07:41:24;6.22;;;5.90;;
53961;SDS011;39868;53.398;6.564;2024-03-29T07:43:54;6.10;;;5.80;;
53961;SDS011;39868;53.398;6.564;2024-03-29T07:46:29;5.90;;;5.55;;
53961;SDS011;39868;53.398;6.564;2024-03-29T07:51:24;5.53;;;5.32;;
53961;SDS011;39868;53.398;6.564;2024-03-29T07:53:50;6.03;;;5.72;;
53961;SDS011;39868;53.398;6.564;2024-03-29T07:56:16;6.05;;;5.85;;
53961;SDS011;39868;53.398;6.564;2024-03-29T07:58:42;6.10;;;5.80;;
53961;SDS011;39868;53.398;6.564;2024-03-29T08:01:08;5.78;;;5.57;;
53961;SDS011;39868;53.398;6.564;2024-03-29T08:03:34;6.40;;;6.10;;
53961;SDS011;39868;53.398;6.564;2024-03-29T08:06:02;6.28;;;5.97;;
53961;SDS011;39868;53.398;6.564;2024-03-29T08:08:31;6.00;;;5.80;;
53961;SDS011;39868;53.398;6.564;2024-03-29T08:10:58;6.20;;;5.90;;
53961;SDS011;39868;53.398;6.564;2024-03-29T08:13:25;6.80;;;6.30;;
53961;SDS011;39868;53.398;6.564;2024-03-29T08:15:58;6.57;;;6.28;;
53961;SDS011;39868;53.398;6.564;2024-03-29T08:18:25;6.50;;;6.30;;
53961;SDS011;39868;53.398;6.564;2024-03-29T08:20:52;7.18;;;6.65;;
53961;SDS011;39868;53.398;6.564;2024-03-29T08:23:22;6.80;;;6.50;;
53961;SDS011;39868;53.398;6.564;2024-03-29T08:25:49;6.63;;;6.35;;
53961;SDS011;39868;53.398;6.564;2024-03-29T08:28:20;6.65;;;6.35;;
53961;SDS011;39868;53.398;6.564;2024-03-29T08:30:46;6.68;;;6.30;;
53961;SDS011;39868;53.398;6.564;2024-03-29T08:33:22;6.45;;;6.15;;
53961;SDS011;39868;53.398;6.564;2024-03-29T08:35:48;6.85;;;6.25;;
53961;SDS011;39868;53.398;6.564;2024-03-29T08:38:14;6.85;;;6.38;;
53961;SDS011;39868;53.398;6.564;2024-03-29T08:40:41;6.20;;;6.00;;
53961;SDS011;39868;53.398;6.564;2024-03-29T08:43:09;6.50;;;6.20;;
53961;SDS011;39868;53.398;6.564;2024-03-29T08:45:35;6.80;;;6.50;;
53961;SDS011;39868;53.398;6.564;2024-03-29T08:48:08;6.60;;;6.28;;
53961;SDS011;39868;53.398;6.564;2024-03-29T08:50:35;7.00;;;6.70;;
53961;SDS011;39868;53.398;6.564;2024-03-29T08:53:01;7.40;;;6.90;;
53961;SDS011;39868;53.398;6.564;2024-03-29T08:55:32;7.50;;;7.00;;
53961;SDS011;39868;53.398;6.564;2024-03-29T08:57:59;6.82;;;6.43;;
53961;SDS011;39868;53.398;6.564;2024-03-29T09:00:26;7.18;;;6.78;;
53961;SDS011;39868;53.398;6.564;2024-03-29T09:02:53;6.65;;;6.35;;
53961;SDS011;39868;53.398;6.564;2024-03-29T09:05:19;6.50;;;6.25;;
53961;SDS011;39868;53.398;6.564;2024-03-29T09:07:45;6.50;;;6.20;;
53961;SDS011;39868;53.398;6.564;2024-03-29T09:10:11;6.63;;;6.38;;
53961;SDS011;39868;53.398;6.564;2024-03-29T09:12:38;6.82;;;6.53;;
53961;SDS011;39868;53.398;6.564;2024-03-29T09:15:05;7.47;;;7.13;;
53961;SDS011;39868;53.398;6.564;2024-03-29T09:17:34;7.43;;;7.03;;
53961;SDS011;39868;53.398;6.564;2024-03-29T09:20:00;7.65;;;7.22;;
53961;SDS011;39868;53.398;6.564;2024-03-29T09:22:26;7.50;;;7.10;;
53961;SDS011;39868;53.398;6.564;2024-03-29T09:24:52;7.80;;;7.40;;
53961;SDS011;39868;53.398;6.564;2024-03-29T09:27:18;8.20;;;7.80;;
53961;SDS011;39868;53.398;6.564;2024-03-29T09:29:47;8.05;;;7.43;;
53961;SDS011;39868;53.398;6.564;2024-03-29T09:32:14;7.30;;;7.00;;
53961;SDS011;39868;53.398;6.564;2024-03-29T09:34:43;7.78;;;7.47;;
53961;SDS011;39868;53.398;6.564;2024-03-29T09:37:09;7.90;;;7.50;;
53961;SDS011;39868;53.398;6.564;2024-03-29T09:39:36;7.70;;;7.40;;
53961;SDS011;39868;53.398;6.564;2024-03-29T09:42:02;7.50;;;7.20;;
53961;SDS011;39868;53.398;6.564;2024-03-29T09:44:31;7.50;;;7.20;;
53961;SDS011;39868;53.398;6.564;2024-03-29T09:47:03;7.43;;;7.13;;
53961;SDS011;39868;53.398;6.564;2024-03-29T09:49:32;7.75;;;7.25;;
53961;SDS011;39868;53.398;6.564;2024-03-29T09:51:59;7.38;;;7.07;;
53961;SDS011;39868;53.398;6.564;2024-03-29T09:54:29;7.80;;;7.50;;
53961;SDS011;39868;53.398;6.564;2024-03-29T09:56:55;8.13;;;7.72;;
53961;SDS011;39868;53.398;6.564;2024-03-29T09:59:22;7.80;;;7.50;;
53961;SDS011;39868;53.398;6.564;2024-03-29T10:01:50;8.10;;;7.70;;
53961;SDS011;39868;53.398;6.564;2024-03-29T10:04:20;7.90;;;7.60;;
53961;SDS011;39868;53.398;6.564;2024-03-29T10:06:48;8.05;;;7.55;;
53961;SDS011;39868;53.398;6.564;2024-03-29T10:09:18;8.25;;;7.75;;
53961;SDS011;39868;53.398;6.564;2024-03-29T10:11:45;8.35;;;7.90;;
53961;SDS011;39868;53.398;6.564;2024-03-29T10:14:12;7.85;;;7.55;;
53961;SDS011;39868;53.398;6.564;2024-03-29T10:16:38;8.65;;;8.30;;
53961;SDS011;39868;53.398;6.564;2024-03-29T10:19:07;7.80;;;7.43;;
53961;SDS011;39868;53.398;6.564;2024-03-29T10:21:33;7.70;;;7.30;;
53961;SDS011;39868;53.398;6.564;2024-03-29T10:24:14;8.00;;;7.60;;
53961;SDS011;39868;53.398;6.564;2024-03-29T10:26:42;7.72;;;7.43;;
53961;SDS011;39868;53.398;6.564;2024-03-29T10:29:09;8.30;;;7.90;;
53961;SDS011;39868;53.398;6.564;2024-03-29T10:31:35;8.48;;;7.85;;
53961;SDS011;39868;53.398;6.564;2024-03-29T10:34:02;7.88;;;7.57;;
53961;SDS011;39868;53.398;6.564;2024-03-29T10:36:30;7.45;;;7.15;;
53961;SDS011;39868;53.398;6.564;2024-03-29T10:39:09;7.93;;;7.53;;
53961;SDS011;39868;53.398;6.564;2024-03-29T10:41:42;8.00;;;7.65;;
53961;SDS011;39868;53.398;6.564;2024-03-29T10:44:09;8.10;;;7.80;;
53961;SDS011;39868;53.398;6.564;2024-03-29T10:46:40;8.05;;;7.75;;
53961;SDS011;39868;53.398;6.564;2024-03-29T10:49:07;7.70;;;7.40;;
53961;SDS011;39868;53.398;6.564;2024-03-29T10:51:38;8.27;;;7.68;;
53961;SDS011;39868;53.398;6.564;2024-03-29T10:54:06;7.75;;;7.45;;
53961;SDS011;39868;53.398;6.564;2024-03-29T10:56:35;8.02;;;7.72;;
53961;SDS011;39868;53.398;6.564;2024-03-29T11:02:00;8.60;;;8.20;;
53961;SDS011;39868;53.398;6.564;2024-03-29T11:04:32;8.18;;;7.88;;
53961;SDS011;39868;53.398;6.564;2024-03-29T11:07:04;7.95;;;7.55;;
53961;SDS011;39868;53.398;6.564;2024-03-29T11:09:36;7.68;;;7.38;;
53961;SDS011;39868;53.398;6.564;2024-03-29T11:12:05;7.40;;;7.10;;
53961;SDS011;39868;53.398;6.564;2024-03-29T11:14:35;8.50;;;8.10;;
53961;SDS011;39868;53.398;6.564;2024-03-29T11:17:07;7.95;;;7.65;;
53961;SDS011;39868;53.398;6.564;2024-03-29T11:19:35;7.80;;;7.50;;
53961;SDS011;39868;53.398;6.564;2024-03-29T11:22:01;8.68;;;8.20;;
53961;SDS011;39868;53.398;6.564;2024-03-29T11:24:29;7.68;;;7.38;;
53961;SDS011;39868;53.398;6.564;2024-03-29T11:26:57;8.05;;;7.70;;
53961;SDS011;39868;53.398;6.564;2024-03-29T11:29:23;7.88;;;7.45;;
53961;SDS011;39868;53.398;6.564;2024-03-29T11:31:57;8.02;;;7.72;;
53961;SDS011;39868;53.398;6.564;2024-03-29T11:34:24;7.90;;;7.50;;
53961;SDS011;39868;53.398;6.564;2024-03-29T11:36:50;7.40;;;7.10;;
53961;SDS011;39868;53.398;6.564;2024-03-29T11:39:22;6.90;;;6.60;;
53961;SDS011;39868;53.398;6.564;2024-03-29T11:41:49;6.97;;;6.68;;
53961;SDS011;39868;53.398;6.564;2024-03-29T11:44:15;8.30;;;8.00;;
53961;SDS011;39868;53.398;6.564;2024-03-29T11:46:42;7.70;;;7.30;;
53961;SDS011;39868;53.398;6.564;2024-03-29T11:49:12;7.28;;;6.97;;
53961;SDS011;39868;53.398;6.564;2024-03-29T11:51:38;8.25;;;7.78;;
53961;SDS011;39868;53.398;6.564;2024-03-29T11:54:09;7.63;;;7.22;;
53961;SDS011;39868;53.398;6.564;2024-03-29T11:56:35;8.38;;;7.72;;
53961;SDS011;39868;53.398;6.564;2024-03-29T11:59:03;7.68;;;7.38;;
53961;SDS011;39868;53.398;6.564;2024-03-29T12:01:29;7.97;;;7.63;;
53961;SDS011;39868;53.398;6.564;2024-03-29T12:03:57;7.75;;;7.45;;
53961;SDS011;39868;53.398;6.564;2024-03-29T12:06:23;7.53;;;7.18;;
53961;SDS011;39868;53.398;6.564;2024-03-29T12:08:50;7.35;;;7.05;;
53961;SDS011;39868;53.398;6.564;2024-03-29T12:11:18;6.97;;;6.68;;
53961;SDS011;39868;53.398;6.564;2024-03-29T12:13:44;7.32;;;7.00;;
53961;SDS011;39868;53.398;6.564;2024-03-29T12:16:10;7.15;;;6.85;;
53961;SDS011;39868;53.398;6.564;2024-03-29T12:18:38;7.80;;;7.20;;
53961;SDS011;39868;53.398;6.564;2024-03-29T12:21:04;7.18;;;6.88;;
53961;SDS011;39868;53.398;6.564;2024-03-29T12:23:30;7.25;;;6.85;;
53961;SDS011;39868;53.398;6.564;2024-03-29T12:25:57;6.95;;;6.55;;
53961;SDS011;39868;53.398;6.564;2024-03-29T12:28:24;7.15;;;6.75;;
53961;SDS011;39868;53.398;6.564;2024-03-29T12:30:51;7.00;;;6.60;;
53961;SDS011;39868;53.398;6.564;2024-03-29T12:33:22;7.10;;;6.80;;
53961;SDS011;39868;53.398;6.564;2024-03-29T12:35:49;6.20;;;6.00;;
53961;SDS011;39868;53.398;6.564;2024-03-29T12:38:18;6.70;;;6.30;;
53961;SDS011;39868;53.398;6.564;2024-03-29T12:40:46;6.38;;;6.10;;
53961;SDS011;39868;53.398;6.564;2024-03-29T12:43:13;6.50;;;6.20;;
53961;SDS011;39868;53.398;6.564;2024-03-29T12:45:42;6.55;;;6.25;;
53961;SDS011;39868;53.398;6.564;2024-03-29T12:48:12;6.40;;;6.20;;
53961;SDS011;39868;53.398;6.564;2024-03-29T12:50:43;6.40;;;6.00;;
53961;SDS011;39868;53.398;6.564;2024-03-29T12:53:11;5.93;;;5.63;;
53961;SDS011;39868;53.398;6.564;2024-03-29T12:55:45;6.03;;;5.72;;
53961;SDS011;39868;53.398;6.564;2024-03-29T12:58:13;6.30;;;6.00;;
53961;SDS011;39868;53.398;6.564;2024-03-29T13:00:44;6.30;;;6.00;;
53961;SDS011;39868;53.398;6.564;2024-03-29T13:03:10;8.95;;;6.35;;
53961;SDS011;39868;53.398;6.564;2024-03-29T13:05:38;6.22;;;5.88;;
53961;SDS011;39868;53.398;6.564;2024-03-29T13:08:08;5.90;;;5.70;;
53961;SDS011;39868;53.398;6.564;2024-03-29T13:10:40;6.15;;;5.85;;
53961;SDS011;39868;53.398;6.564;2024-03-29T13:13:07;6.45;;;6.13;;
53961;SDS011;39868;53.398;6.564;2024-03-29T13:15:34;5.80;;;5.60;;
53961;SDS011;39868;53.398;6.564;2024-03-29T13:18:02;5.90;;;5.60;;
53961;SDS011;39868;53.398;6.564;2024-03-29T13:20:29;6.00;;;5.80;;
53961;SDS011;39868;53.398;6.564;2024-03-29T13:22:56;6.20;;;5.90;;
53961;SDS011;39868;53.398;6.564;2024-03-29T13:25:23;6.25;;;5.90;;
53961;SDS011;39868;53.398;6.564;2024-03-29T13:27:50;6.47;;;6.15;;
53961;SDS011;39868;53.398;6.564;2024-03-29T13:30:21;6.32;;;6.03;;
53961;SDS011;39868;53.398;6.564;2024-03-29T13:32:47;5.85;;;5.57;;
53961;SDS011;39868;53.398;6.564;2024-03-29T13:35:14;6.30;;;6.00;;
53961;SDS011;39868;53.398;6.564;2024-03-29T13:37:41;6.40;;;6.00;;
53961;SDS011;39868;53.398;6.564;2024-03-29T13:40:09;6.25;;;5.95;;
53961;SDS011;39868;53.398;6.564;2024-03-29T13:42:36;6.65;;;6.35;;
53961;SDS011;39868;53.398;6.564;2024-03-29T13:45:03;6.75;;;6.45;;
53961;SDS011;39868;53.398;6.564;2024-03-29T13:47:33;6.90;;;6.50;;
53961;SDS011;39868;53.398;6.564;2024-03-29T13:50:01;6.50;;;6.10;;
53961;SDS011;39868;53.398;6.564;2024-03-29T13:52:27;6.65;;;6.35;;
53961;SDS011;39868;53.398;6.564;2024-03-29T13:54:53;6.90;;;6.60;;
53961;SDS011;39868;53.398;6.564;2024-03-29T13:57:19;6.45;;;6.15;;
53961;SDS011;39868;53.398;6.564;2024-03-29T13:59:46;7.57;;;7.07;;
53961;SDS011;39868;53.398;6.564;2024-03-29T14:02:12;7.78;;;7.38;;
53961;SDS011;39868;53.398;6.564;2024-03-29T14:04:40;7.70;;;7.28;;
53961;SDS011;39868;53.398;6.564;2024-03-29T14:07:07;7.30;;;7.00;;
53961;SDS011;39868;53.398;6.564;2024-03-29T14:09:34;8.00;;;7.50;;
53961;SDS011;39868;53.398;6.564;2024-03-29T14:12:01;7.68;;;7.30;;
53961;SDS011;39868;53.398;6.564;2024-03-29T14:14:28;8.30;;;7.90;;
53961;SDS011;39868;53.398;6.564;2024-03-29T14:16:55;7.95;;;7.65;;
53961;SDS011;39868;53.398;6.564;2024-03-29T14:19:21;8.20;;;7.90;;
53961;SDS011;39868;53.398;6.564;2024-03-29T14:21:47;8.30;;;8.00;;
53961;SDS011;39868;53.398;6.564;2024-03-29T14:24:13;8.60;;;8.20;;
53961;SDS011;39868;53.398;6.564;2024-03-29T14:26:42;8.32;;;7.93;;
53961;SDS011;39868;53.398;6.564;2024-03-29T14:29:08;8.48;;;8.18;;
53961;SDS011;39868;53.398;6.564;2024-03-29T14:31:37;8.63;;;8.25;;
53961;SDS011;39868;53.398;6.564;2024-03-29T14:34:03;8.90;;;8.50;;
53961;SDS011;39868;53.398;6.564;2024-03-29T14:36:29;9.00;;;8.50;;
53961;SDS011;39868;53.398;6.564;2024-03-29T14:39:01;9.00;;;8.60;;
53961;SDS011;39868;53.398;6.564;2024-03-29T14:41:27;9.20;;;8.80;;
53961;SDS011;39868;53.398;6.564;2024-03-29T14:43:54;9.05;;;8.75;;
53961;SDS011;39868;53.398;6.564;2024-03-29T14:46:22;9.82;;;9.43;;
53961;SDS011;39868;53.398;6.564;2024-03-29T14:48:49;10.18;;;9.57;;
53961;SDS011;39868;53.398;6.564;2024-03-29T14:51:15;9.57;;;9.18;;
53961;SDS011;39868;53.398;6.564;2024-03-29T14:53:42;10.48;;;9.98;;
53961;SDS011;39868;53.398;6.564;2024-03-29T14:56:15;9.65;;;9.25;;